createdAt,value
2019-04-21T00:01:44.690Z,10.08
2019-04-21T00:04:19.770Z,9.99
2019-04-21T00:06:57.212Z,9.92
2019-04-21T00:09:33.677Z,9.84
2019-04-21T00:11:55.382Z,9.80
2019-04-21T00:14:17.908Z,9.77
2019-04-21T00:16:44.110Z,9.73
2019-04-21T00:19:14.339Z,9.72
2019-04-21T00:21:45.235Z,9.69
2019-04-21T00:24:24.014Z,9.64
2019-04-21T00:27:01.136Z,9.63
2019-04-21T00:29:30.382Z,9.61
2019-04-21T00:31:54.997Z,9.56
2019-04-21T00:34:09.018Z,9.59
2019-04-21T00:36:47.588Z,9.57
2019-04-21T00:39:37.068Z,9.55
2019-04-21T00:41:59.942Z,9.53
2019-04-21T00:44:18.627Z,9.49
2019-04-21T00:46:52.189Z,9.44
2019-04-21T00:49:25.712Z,9.39
2019-04-21T00:52:25.952Z,9.33
2019-04-21T00:54:52.053Z,9.30
2019-04-21T00:57:22.184Z,9.29
2019-04-21T00:59:43.285Z,9.32
2019-04-21T01:02:05.606Z,9.37
2019-04-21T01:04:44.639Z,9.36
2019-04-21T01:07:07.299Z,9.36
2019-04-21T01:09:33.521Z,9.36
2019-04-21T01:12:07.814Z,9.34
2019-04-21T01:14:45.580Z,9.29
2019-04-21T01:17:04.441Z,9.24
2019-04-21T01:19:33.693Z,9.18
2019-04-21T01:21:41.991Z,9.18
2019-04-21T01:24:19.269Z,9.19
2019-04-21T01:26:52.235Z,9.20
2019-04-21T01:29:34.273Z,9.20
2019-04-21T01:32:05.155Z,9.21
2019-04-21T01:34:29.052Z,9.17
2019-04-21T01:36:54.738Z,9.17
2019-04-21T01:39:34.976Z,9.15
2019-04-21T01:41:57.278Z,9.12
2019-04-21T01:44:31.310Z,9.07
2019-04-21T01:46:51.834Z,9.03
2019-04-21T01:49:19.142Z,9.01
2019-04-21T01:52:08.903Z,8.98
2019-04-21T01:54:48.226Z,8.97
2019-04-21T01:57:18.743Z,8.94
2019-04-21T01:59:44.800Z,8.88
2019-04-21T02:02:19.412Z,8.87
2019-04-21T02:04:47.377Z,8.83
2019-04-21T02:07:17.702Z,8.79
2019-04-21T02:09:44.587Z,8.72
2019-04-21T02:12:20.473Z,8.69
2019-04-21T02:14:50.500Z,8.63
2019-04-21T02:17:18.711Z,8.57
2019-04-21T02:19:39.042Z,8.57
2019-04-21T02:22:11.189Z,8.56
2019-04-21T02:24:51.904Z,8.54
2019-04-21T02:27:14.984Z,8.52
2019-04-21T02:29:41.254Z,8.22
2019-04-21T02:32:17.378Z,8.43
2019-04-21T02:34:52.759Z,8.41
2019-04-21T02:39:49.519Z,8.27
2019-04-21T02:42:41.870Z,8.22
2019-04-21T02:45:00.301Z,8.22
2019-04-21T02:47:18.511Z,8.23
2019-04-21T02:49:53.927Z,8.20
2019-04-21T02:52:30.053Z,8.17
2019-04-21T02:54:53.948Z,8.14
2019-04-21T02:57:18.962Z,8.11
2019-04-21T02:59:49.373Z,8.08
2019-04-21T03:02:39.070Z,8.06
2019-04-21T03:05:24.331Z,8.04
2019-04-21T03:07:44.697Z,7.99
2019-04-21T03:10:10.790Z,7.94
2019-04-21T03:12:38.124Z,7.89
2019-04-21T03:15:13.223Z,7.81
2019-04-21T03:20:14.644Z,7.80
2019-04-21T03:22:31.763Z,7.79
2019-04-21T03:27:53.096Z,7.74
2019-04-21T03:30:18.923Z,7.68
2019-04-21T03:33:13.944Z,7.62
2019-04-21T03:37:49.720Z,7.50
2019-04-21T03:40:03.319Z,7.46
2019-04-21T03:42:33.639Z,7.43
2019-04-21T03:45:06.985Z,7.37
2019-04-21T03:47:30.578Z,7.30
2019-04-21T03:50:06.759Z,7.25
2019-04-21T03:52:37.064Z,7.21
2019-04-21T04:03:27.436Z,7.08
2019-04-21T04:06:13.397Z,7.06
2019-04-21T04:08:51.655Z,7.07
2019-04-21T04:16:10.136Z,7.04
2019-04-21T04:18:46.214Z,7.00
2019-04-21T04:21:13.406Z,6.97
2019-04-21T04:23:52.143Z,6.91
2019-04-21T04:26:07.539Z,6.91
2019-04-21T04:31:15.366Z,6.98
2019-04-21T04:41:14.607Z,7.01
2019-04-21T04:43:37.227Z,6.99
2019-04-21T04:46:29.379Z,6.98
2019-04-21T04:48:35.369Z,6.97
2019-04-21T04:53:42.767Z,6.94
2019-04-21T04:56:25.470Z,6.94
2019-04-21T04:58:54.669Z,6.98
2019-04-21T05:01:21.591Z,7.06
2019-04-21T05:03:43.994Z,7.10
2019-04-21T05:06:41.911Z,7.16
2019-04-21T05:09:15.456Z,7.25
2019-04-21T05:23:48.176Z,7.58
2019-04-21T05:26:12.105Z,7.63
2019-04-21T05:28:42.069Z,7.74
2019-04-21T05:31:40.119Z,7.89
2019-04-21T05:34:14.519Z,8.03
2019-04-21T05:36:44.831Z,8.18
2019-04-21T05:39:36.209Z,8.32
2019-04-21T05:41:54.238Z,8.44
2019-04-21T05:44:41.990Z,8.58
2019-04-21T05:47:15.961Z,8.66
2019-04-21T05:49:56.046Z,8.76
2019-04-21T05:52:26.464Z,8.80
2019-04-21T05:55:00.847Z,8.89
2019-04-21T05:57:28.863Z,9.04
2019-04-21T05:59:56.139Z,9.15
2019-04-21T06:02:42.963Z,9.28
2019-04-21T06:05:07.223Z,9.39
2019-04-21T06:07:28.812Z,9.51
2019-04-21T06:10:08.489Z,9.61
2019-04-21T06:12:28.578Z,9.72
2019-04-21T06:14:54.541Z,9.85
2019-04-21T06:17:32.875Z,10.12
2019-04-21T06:19:58.394Z,10.28
2019-04-21T06:22:19.449Z,10.41
2019-04-21T06:27:27.976Z,10.60
2019-04-21T06:29:49.327Z,10.70
2019-04-21T06:32:37.427Z,10.75
2019-04-21T06:35:06.238Z,10.86
2019-04-21T06:37:39.672Z,10.98
2019-04-21T06:40:08.984Z,11.09
2019-04-21T06:42:18.423Z,11.16
2019-04-21T06:45:01.817Z,11.24
2019-04-21T06:47:32.442Z,11.19
2019-04-21T06:49:44.392Z,11.27
2019-04-21T06:52:44.786Z,11.37
2019-04-21T06:54:49.534Z,11.53
2019-04-21T06:57:16.577Z,11.67
2019-04-21T06:59:43.433Z,11.82
2019-04-21T07:02:30.544Z,11.98
2019-04-21T07:04:46.479Z,12.18
2019-04-21T07:07:14.418Z,12.34
2019-04-21T07:09:45.484Z,12.39
2019-04-21T07:12:06.106Z,12.45
2019-04-21T07:14:48.187Z,12.43
2019-04-21T07:17:24.222Z,12.58
2019-04-21T07:19:42.355Z,12.51
2019-04-21T07:22:11.088Z,12.64
2019-04-21T07:24:39.256Z,12.87
2019-04-21T07:27:11.719Z,13.05
2019-04-21T07:29:39.549Z,13.19
2019-04-21T07:37:05.987Z,13.52
2019-04-21T07:39:35.601Z,13.54
2019-04-21T07:41:59.330Z,13.67
2019-04-21T07:44:29.073Z,13.84
2019-04-21T07:46:55.428Z,14.02
2019-04-21T07:49:47.896Z,14.19
2019-04-21T07:52:35.007Z,14.44
2019-04-21T07:55:15.309Z,14.66
2019-04-21T07:57:27.614Z,14.91
2019-04-21T08:00:12.509Z,15.23
2019-04-21T08:02:23.434Z,15.59
2019-04-21T08:05:11.001Z,15.81
2019-04-21T08:07:32.351Z,16.13
2019-04-21T08:09:51.481Z,16.40
2019-04-21T08:12:22.057Z,16.66
2019-04-21T08:14:55.630Z,17.05
2019-04-21T08:17:23.951Z,17.44
2019-04-21T08:19:49.726Z,17.54
2019-04-21T08:22:42.654Z,17.86
2019-04-21T08:24:50.399Z,18.11
2019-04-21T08:27:17.754Z,18.27
2019-04-21T08:29:52.935Z,18.67
2019-04-21T08:32:46.591Z,18.96
2019-04-21T08:34:59.504Z,18.89
2019-04-21T08:37:21.572Z,19.05
2019-04-21T08:39:57.050Z,19.16
2019-04-21T08:42:18.052Z,19.30
2019-04-21T08:44:49.347Z,19.35
2019-04-21T08:47:12.982Z,19.65
2019-04-21T08:49:44.248Z,19.97
2019-04-21T08:52:23.295Z,20.24
2019-04-21T08:54:45.311Z,20.60
2019-04-21T08:57:41.705Z,20.83
2019-04-21T09:00:26.560Z,20.89
2019-04-21T09:02:57.409Z,20.90
2019-04-21T09:05:24.193Z,20.72
2019-04-21T09:08:00.100Z,21.11
2019-04-21T09:10:22.043Z,21.51
2019-04-21T09:12:51.823Z,21.79
2019-04-21T09:15:21.192Z,22.06
2019-04-21T09:17:44.673Z,22.42
2019-04-21T09:20:42.401Z,22.61
2019-04-21T09:22:48.674Z,22.74
2019-04-21T09:25:26.951Z,22.98
2019-04-21T09:27:53.680Z,23.31
2019-04-21T09:30:03.520Z,23.67
2019-04-21T09:32:32.900Z,23.96
2019-04-21T09:34:58.214Z,24.11
2019-04-21T09:37:39.773Z,24.32
2019-04-21T09:39:57.830Z,24.49
2019-04-21T09:42:32.295Z,24.68
2019-04-21T09:44:59.418Z,24.92
2019-04-21T09:47:37.499Z,25.15
2019-04-21T09:49:54.473Z,25.50
2019-04-21T09:52:29.148Z,25.68
2019-04-21T09:55:03.448Z,25.82
2019-04-21T09:57:33.515Z,26.14
2019-04-21T10:00:04.128Z,26.22
2019-04-21T10:02:32.787Z,26.37
2019-04-21T10:04:50.499Z,26.53
2019-04-21T10:07:26.474Z,26.83
2019-04-21T10:09:48.462Z,27.06
2019-04-21T10:12:17.723Z,27.14
2019-04-21T10:14:47.358Z,27.43
2019-04-21T10:17:21.736Z,27.63
2019-04-21T10:19:50.725Z,27.68
2019-04-21T10:22:21.019Z,27.58
2019-04-21T10:24:48.957Z,28.06
2019-04-21T10:27:19.074Z,27.85
2019-04-21T10:29:49.124Z,27.73
2019-04-21T10:32:19.714Z,27.54
2019-04-21T10:34:47.403Z,27.57
2019-04-21T10:37:16.567Z,27.74
2019-04-21T10:39:45.356Z,27.86
2019-04-21T10:42:13.761Z,27.85
2019-04-21T10:44:43.262Z,28.16
2019-04-21T10:47:13.083Z,28.47
2019-04-21T10:49:42.513Z,28.50
2019-04-21T10:52:17.158Z,28.64
2019-04-21T10:55:06.882Z,28.73
2019-04-21T10:57:20.161Z,28.53
2019-04-21T10:59:52.278Z,28.74
2019-04-21T11:02:39.052Z,29.05
2019-04-21T11:05:07.121Z,28.91
2019-04-21T11:07:55.215Z,29.48
2019-04-21T11:10:16.014Z,29.22
2019-04-21T11:12:44.731Z,29.67
2019-04-21T11:15:13.124Z,29.63
2019-04-21T11:17:43.899Z,29.88
2019-04-21T11:20:12.918Z,29.82
2019-04-21T11:22:41.650Z,30.03
2019-04-21T11:25:11.161Z,30.28
2019-04-21T11:27:40.779Z,30.07
2019-04-21T11:30:09.569Z,30.22
2019-04-21T11:32:39.258Z,30.22
2019-04-21T11:35:07.408Z,29.91
2019-04-21T11:37:37.786Z,29.92
2019-04-21T11:40:10.815Z,30.15
2019-04-21T11:42:38.085Z,30.31
2019-04-21T11:45:08.420Z,30.39
2019-04-21T11:47:41.041Z,30.78
2019-04-21T11:50:10.931Z,31.23
2019-04-21T11:52:41.070Z,31.49
2019-04-21T11:55:09.163Z,31.59
2019-04-21T11:57:42.790Z,31.65
2019-04-21T12:00:07.766Z,31.55
2019-04-21T12:02:37.396Z,31.56
2019-04-21T12:05:07.571Z,31.71
2019-04-21T12:07:36.019Z,31.62
2019-04-21T12:10:05.799Z,31.54
2019-04-21T12:12:35.117Z,31.66
2019-04-21T12:15:05.999Z,31.76
2019-04-21T12:17:34.214Z,31.60
2019-04-21T12:20:03.610Z,31.76
2019-04-21T12:22:34.083Z,32.14
2019-04-21T12:25:03.056Z,32.11
2019-04-21T12:27:32.022Z,32.26
2019-04-21T12:30:01.938Z,32.68
2019-04-21T12:32:56.069Z,32.83
2019-04-21T12:35:26.017Z,32.94
2019-04-21T12:37:55.045Z,32.86
2019-04-21T12:40:24.242Z,33.01
2019-04-21T12:42:52.552Z,33.27
2019-04-21T12:45:22.131Z,33.24
2019-04-21T12:47:52.406Z,32.71
2019-04-21T12:50:21.494Z,32.52
2019-04-21T12:52:49.694Z,32.83
2019-04-21T12:55:19.712Z,33.08
2019-04-21T12:57:48.140Z,33.02
2019-04-21T13:00:18.682Z,33.12
2019-04-21T13:02:47.917Z,33.10
2019-04-21T13:05:17.803Z,33.10
2019-04-21T13:07:46.495Z,32.77
2019-04-21T13:10:16.172Z,32.83
2019-04-21T13:12:45.897Z,32.90
2019-04-21T13:15:15.700Z,32.94
2019-04-21T13:17:45.764Z,32.85
2019-04-21T13:20:12.979Z,33.00
2019-04-21T13:22:42.252Z,33.13
2019-04-21T13:25:11.923Z,33.21
2019-04-21T13:27:41.002Z,33.11
2019-04-21T13:30:12.720Z,33.06
2019-04-21T13:32:43.021Z,33.22
2019-04-21T13:35:11.145Z,33.26
2019-04-21T13:37:41.503Z,33.33
2019-04-21T13:40:45.103Z,33.35
2019-04-21T13:43:02.126Z,33.35
2019-04-21T13:45:27.828Z,33.19
2019-04-21T13:47:56.785Z,33.25
2019-04-21T13:50:25.999Z,33.47
2019-04-21T13:52:56.554Z,33.41
2019-04-21T13:55:25.571Z,33.17
2019-04-21T13:57:54.540Z,33.21
2019-04-21T14:00:24.080Z,33.16
2019-04-21T14:02:52.555Z,32.50
2019-04-21T14:05:22.399Z,32.47
2019-04-21T14:07:52.226Z,32.34
2019-04-21T14:10:21.720Z,32.46
2019-04-21T14:12:50.577Z,32.73
2019-04-21T14:15:20.113Z,32.67
2019-04-21T14:17:48.994Z,32.67
2019-04-21T14:20:17.325Z,32.67
2019-04-21T14:22:46.619Z,32.67
2019-04-21T14:25:15.903Z,32.76
2019-04-21T14:27:48.508Z,32.66
2019-04-21T14:30:14.499Z,32.64
2019-04-21T14:32:44.324Z,32.91
2019-04-21T14:35:13.004Z,32.98
2019-04-21T14:37:42.562Z,32.63
2019-04-21T14:40:15.594Z,32.48
2019-04-21T14:42:42.201Z,32.40
2019-04-21T14:45:12.627Z,32.23
2019-04-21T14:47:52.958Z,32.40
2019-04-21T14:50:42.172Z,32.29
2019-04-21T14:53:20.208Z,32.31
2019-04-21T14:55:49.221Z,32.32
2019-04-21T14:58:19.124Z,32.26
2019-04-21T15:01:06.013Z,32.15
2019-04-21T15:03:34.934Z,32.02
2019-04-21T15:06:05.488Z,32.04
2019-04-21T15:08:33.527Z,32.15
2019-04-21T15:11:03.214Z,32.06
2019-04-21T15:13:32.384Z,31.81
2019-04-21T15:16:02.647Z,31.65
2019-04-21T15:18:30.748Z,31.62
2019-04-21T15:20:59.856Z,31.58
2019-04-21T15:23:30.543Z,31.34
2019-04-21T15:26:00.003Z,31.27
2019-04-21T15:28:31.247Z,31.10
2019-04-21T15:30:58.540Z,31.17
2019-04-21T15:33:26.648Z,30.90
2019-04-21T15:35:57.388Z,30.39
2019-04-21T15:38:25.540Z,30.47
2019-04-21T15:40:58.063Z,30.43
2019-04-21T15:43:24.515Z,30.17
2019-04-21T15:45:53.243Z,30.04
2019-04-21T15:48:23.942Z,30.06
2019-04-21T15:50:51.890Z,30.07
2019-04-21T15:53:21.689Z,30.17
2019-04-21T15:55:59.146Z,30.27
2019-04-21T15:58:38.596Z,30.28
2019-04-21T16:01:14.379Z,30.53
2019-04-21T16:03:42.867Z,30.82
2019-04-21T16:06:11.668Z,31.21
2019-04-21T16:08:40.727Z,31.39
2019-04-21T16:11:11.406Z,31.66
2019-04-21T16:13:39.626Z,31.90
2019-04-21T16:16:08.585Z,31.81
2019-04-21T16:18:38.364Z,32.14
2019-04-21T16:21:08.311Z,32.20
2019-04-21T16:23:36.399Z,32.22
2019-04-21T16:26:06.609Z,32.41
2019-04-21T16:28:35.228Z,32.42
2019-04-21T16:31:04.639Z,32.50
2019-04-21T16:33:33.512Z,32.23
2019-04-21T16:36:02.837Z,32.37
2019-04-21T16:38:33.443Z,32.52
2019-04-21T16:41:04.872Z,32.67
2019-04-21T16:43:31.127Z,32.81
2019-04-21T16:46:01.204Z,32.85
2019-04-21T16:48:29.101Z,32.84
2019-04-21T16:50:59.530Z,32.64
2019-04-21T16:53:41.744Z,32.80
2019-04-21T16:56:29.130Z,31.77
2019-04-21T16:59:08.408Z,32.62
2019-04-21T17:01:36.464Z,32.21
2019-04-21T17:04:06.645Z,32.25
2019-04-21T17:06:35.358Z,31.78
2019-04-21T17:09:05.051Z,31.70
2019-04-21T17:11:37.230Z,31.19
2019-04-21T17:14:03.637Z,30.29
2019-04-21T17:17:16.173Z,29.25
2019-04-21T17:19:12.748Z,28.35
2019-04-21T17:21:32.070Z,27.52
2019-04-21T17:24:00.349Z,26.94
2019-04-21T17:26:30.993Z,26.35
2019-04-21T17:28:58.879Z,25.83
2019-04-21T17:31:28.724Z,25.37
2019-04-21T17:36:21.147Z,24.57
2019-04-21T17:38:50.257Z,24.12
2019-04-21T17:41:29.009Z,23.71
2019-04-21T17:43:49.930Z,23.54
2019-04-21T17:46:23.053Z,23.26
2019-04-21T17:48:47.361Z,22.87
2019-04-21T17:51:27.841Z,22.44
2019-04-21T17:54:13.564Z,22.05
2019-04-21T17:57:00.495Z,21.64
2019-04-21T17:59:38.310Z,21.28
2019-04-21T18:01:56.381Z,20.94
2019-04-21T18:04:18.303Z,20.62
2019-04-21T18:07:08.720Z,20.37
2019-04-21T18:09:51.815Z,20.16
2019-04-21T18:12:12.295Z,19.93
2019-04-21T18:14:22.524Z,19.71
2019-04-21T18:16:53.381Z,19.55
2019-04-21T18:19:27.882Z,19.41
2019-04-21T18:22:01.364Z,19.28
2019-04-21T18:24:35.420Z,19.14
2019-04-21T18:27:00.152Z,19.01
2019-04-21T18:29:25.592Z,18.93
2019-04-21T18:31:55.907Z,18.78
2019-04-21T18:34:52.598Z,18.61
2019-04-21T18:37:27.123Z,18.45
2019-04-21T18:40:01.644Z,18.25
2019-04-21T18:42:42.786Z,18.10
2019-04-21T18:48:19.423Z,17.78
2019-04-21T18:50:55.118Z,17.64
2019-04-21T18:53:48.086Z,17.48
2019-04-21T18:56:08.081Z,17.35
2019-04-21T18:58:33.409Z,17.21
2019-04-21T19:01:10.522Z,17.09
2019-04-21T19:03:39.663Z,17.00
2019-04-21T19:06:09.093Z,16.91
2019-04-21T19:08:56.114Z,16.85
2019-04-21T19:11:19.005Z,16.78
2019-04-21T19:14:19.608Z,16.72
2019-04-21T19:17:00.742Z,16.65
2019-04-21T19:19:23.568Z,16.59
2019-04-21T19:21:28.042Z,16.53
2019-04-21T19:24:13.539Z,16.47
2019-04-21T19:26:29.410Z,16.42
2019-04-21T19:29:03.620Z,16.35
2019-04-21T19:31:34.995Z,16.28
2019-04-21T19:33:54.491Z,16.20
2019-04-21T19:36:11.111Z,16.13
2019-04-21T19:38:48.941Z,16.07
2019-04-21T19:41:25.462Z,16.00
2019-04-21T19:43:59.830Z,15.94
2019-04-21T19:46:22.663Z,15.86
2019-04-21T19:49:01.220Z,15.76
2019-04-21T19:51:22.026Z,15.70
2019-04-21T19:53:49.067Z,15.68
2019-04-21T19:56:05.941Z,15.66
2019-04-21T19:58:39.145Z,15.66
2019-04-21T20:01:05.584Z,15.61
2019-04-21T20:03:34.582Z,15.55
2019-04-21T20:06:11.817Z,15.48
2019-04-21T20:08:44.622Z,15.41
2019-04-21T20:11:20.966Z,15.34
2019-04-21T20:14:32.639Z,15.29
2019-04-21T20:16:21.572Z,15.21
2019-04-21T20:18:36.874Z,15.16
2019-04-21T20:20:58.466Z,15.06
2019-04-21T20:23:31.880Z,15.01
2019-04-21T20:26:01.203Z,14.95
2019-04-21T20:28:37.281Z,14.87
2019-04-21T20:31:14.925Z,14.78
2019-04-21T20:33:57.963Z,14.69
2019-04-21T20:36:15.814Z,14.59
2019-04-21T20:38:35.820Z,14.51
2019-04-21T20:41:01.772Z,14.44
2019-04-21T20:43:44.106Z,14.38
2019-04-21T20:46:07.676Z,14.33
2019-04-21T20:48:30.572Z,14.26
2019-04-21T20:51:06.514Z,14.18
2019-04-21T20:53:36.240Z,14.12
2019-04-21T20:55:59.038Z,14.06
2019-04-21T20:58:37.609Z,14.00
2019-04-21T21:01:20.807Z,13.94
2019-04-21T21:03:37.780Z,13.87
2019-04-21T21:05:54.224Z,13.78
2019-04-21T21:08:35.712Z,13.73
2019-04-21T21:10:55.163Z,13.70
2019-04-21T21:13:31.127Z,13.68
2019-04-21T21:16:10.224Z,13.76
2019-04-21T21:18:48.672Z,13.78
2019-04-21T21:20:59.007Z,13.80
2019-04-21T21:23:29.112Z,13.81
2019-04-21T21:25:59.338Z,13.84
2019-04-21T21:28:24.900Z,13.88
2019-04-21T21:30:55.638Z,13.84
2019-04-21T21:33:22.871Z,13.77
2019-04-21T21:35:50.126Z,13.70
2019-04-21T21:38:28.113Z,13.59
2019-04-21T21:40:51.428Z,13.50
2019-04-21T21:43:09.198Z,13.42
2019-04-21T21:45:42.563Z,13.33
2019-04-21T21:48:21.781Z,13.27
2019-04-21T21:50:45.644Z,13.23
2019-04-21T21:53:13.189Z,13.17
2019-04-21T21:55:35.842Z,13.11
2019-04-21T21:58:05.830Z,13.04
2019-04-21T22:00:36.994Z,12.96
2019-04-21T22:03:10.456Z,12.89
2019-04-21T22:05:42.261Z,12.81
2019-04-21T22:08:02.409Z,12.78
2019-04-21T22:10:31.410Z,12.72
2019-04-21T22:13:06.669Z,12.67
2019-04-21T22:15:32.014Z,12.65
2019-04-21T22:18:16.751Z,12.60
2019-04-21T22:20:44.548Z,12.58
2019-04-21T22:23:04.092Z,12.59
2019-04-21T22:25:29.991Z,12.57
2019-04-21T22:27:55.693Z,12.55
2019-04-21T22:30:32.598Z,12.50
2019-04-21T22:33:00.541Z,12.44
2019-04-21T22:35:31.573Z,12.38
2019-04-21T22:38:10.190Z,12.32
2019-04-21T22:40:40.816Z,12.28
2019-04-21T22:42:59.375Z,12.23
2019-04-21T22:45:19.721Z,12.21
2019-04-21T22:47:49.437Z,12.17
2019-04-21T22:50:24.834Z,12.13
2019-04-21T22:52:59.493Z,12.09
2019-04-21T22:55:27.043Z,12.04
2019-04-21T22:57:55.325Z,12.00
2019-04-21T23:00:22.333Z,11.97
2019-04-21T23:02:54.920Z,11.94
2019-04-21T23:05:26.813Z,11.90
2019-04-21T23:07:55.206Z,11.86
2019-04-21T23:10:19.259Z,11.81
2019-04-21T23:12:48.096Z,11.79
2019-04-21T23:15:20.893Z,11.78
2019-04-21T23:18:06.482Z,11.75
2019-04-21T23:20:31.565Z,11.71
2019-04-21T23:23:09.899Z,11.68
2019-04-21T23:25:30.533Z,11.65
2019-04-21T23:28:00.095Z,11.62
2019-04-21T23:30:39.108Z,11.58
2019-04-21T23:32:51.407Z,11.55
2019-04-21T23:35:18.819Z,11.53
2019-04-21T23:37:49.131Z,11.50
2019-04-21T23:40:16.488Z,11.50
2019-04-21T23:42:43.312Z,11.47
2019-04-21T23:45:09.179Z,11.44
2019-04-21T23:47:46.868Z,11.42
2019-04-21T23:50:20.141Z,11.41
2019-04-21T23:52:37.506Z,11.39
2019-04-21T23:55:05.655Z,11.36
2019-04-21T23:57:40.795Z,11.34
